Tiempo atmosférico en la estación meteorológica de Mula, Murcia (290 m.)



Fecha
DESCASC
Temp. máxima en grados centígrados (hora)
DESCASC
Temp. mínima en grados centígrados (hora)
DESCASC
Temp. media en grados centígrados
DESCASC
Racha de viento máxima en m/sg (hora)
DESCASC
Velocidad máxima media en intervalos de 10 minutos(hora)
DESCASC
Precipitaciones diarias en mm
DESCASC
Precipitaciones de 00:00 a 06:00 en mm
DESCASC
Precipitaciones de 06:00 a 12:00 en mm
DESCASC
Precipitaciones de 12:00 a 18:00 en mm
DESCASC
Precipitaciones de 18:00 a 24:00 en mm
DESCASC
18-04-2019 17.2 (13:10) 10.7 (23:40) 14 15.56 (14:10) 9.72 (14:10) 1.6 0 0 1.4 0.2
17-04-2019 21 (15:20) 13.2 (23:10) 17.1 10 (16:20) 6.67 (16:40) 0 0 0 0 0
16-04-2019 25.4 (14:50) 11.3 (00:00) 18.3 13.06 (16:50) 8.61 (17:00) 0 0 0 0 0
15-04-2019 23.7 (15:30) 14.5 (00:00) 19.1 10 (18:40) 5.83 (18:50) 0 0 0 0 0
14-04-2019 29.1 (15:40) 9.9 (00:00) 19.5 8.89 (17:30) 4.72 (18:30) 0 0 0 0 0
13-04-2019 27.2 (17:20) 8.8 (00:00) 18 10 (12:20) 5.28 (13:20) 0 0 0 0 0
12-04-2019 24.8 (16:50) 7.7 (00:00) 16.2 12.78 (14:40) 6.39 (12:10) 0 0 0 0 0
11-04-2019 22.9 (16:20) 8.7 (00:00) 15.8 11.94 (13:30) 7.78 (13:20) 0 0 0 0 0
10-04-2019 20.7 (17:20) 7.7 (00:00) 14.2 17.22 (18:20) 10.83 (18:20) 0.2 0 0 0 0.2
09-04-2019 21.3 (15:50) 10.7 (00:00) 16 13.89 (01:50) 8.89 (01:50) 0 0 0 0 0
08-04-2019 23 (16:30) 10.2 (00:00) 16.6 7.5 (14:40) 3.89 (17:50) 0.4 0 0 0.4 0
07-04-2019 19.1 (16:20) 7.8 (00:00) 13.5 14.72 (13:10) 10 (10:20) 0.4 0 0.4 0 0
06-04-2019 17.2 (16:20) 4.9 (00:00) 11.1 15 (17:40) 9.17 (17:30) 1.4 0 0 1.4 0
05-04-2019 18.9 (13:20) 6.6 (00:00) 12.7 13.06 (15:20) 7.5 (15:10) 0.8 0 0 0.6 0.2
04-04-2019 20 (15:10) 7.6 (00:00) 13.8 10.28 (00:40) 6.67 (01:10) 0 0 0 0 0
03-04-2019 24 (14:50) 8.1 (00:00) 16.1 10.28 (17:40) 5.28 (20:50) 0 0 0 0 0
02-04-2019 22.8 (17:40) 9.5 (00:00) 16.1 6.67 (19:50) 3.61 (19:40) 0 0 0 0 0
01-04-2019 -- (--) -- (--) -- -- (--) -- (--) 0 0 0 0 0
31-03-2019 11.9 (18:40) 8.8 (00:00) 10.3 -- (--) -- (--) 19.4 3.2 9.4 6.8 0
30-03-2019 -- (--) -- (--) -- -- (--) -- (--) 0 0 0 0 0
29-03-2019 18.5 (15:00) 4.9 (00:00) 11.7 8.89 (15:00) 5 (15:00) 0 0 0 0 0
28-03-2019 19.3 (15:10) 2.5 (00:00) 10.9 10.28 (17:30) 5.56 (17:30) 0 0 0 0 0
27-03-2019 18.7 (14:10) 3.9 (00:00) 11.3 9.17 (16:20) 5 (17:00) 0 0 0 0 0
26-03-2019 19.2 (14:00) 5.8 (00:00) 12.5 11.67 (14:10) 6.39 (15:00) 0 0 0 0 0
25-03-2019 23.3 (14:50) 6.7 (00:00) 15 7.78 (18:40) 4.72 (18:30) 0 0 0 0 0
24-03-2019 20.7 (14:10) 5.9 (00:00) 13.3 8.33 (14:10) 4.72 (14:20) 0 0 0 0 0
23-03-2019 16.5 (16:40) 8 (00:00) 12.3 5.56 (02:50) 3.61 (14:10) 0 0 0 0 0
22-03-2019 22.1 (14:50) 5 (00:00) 13.6 8.33 (16:20) 4.72 (10:00) 0 0 0 0 0
21-03-2019 18.3 (13:30) 3.6 (00:00) 10.9 9.44 (13:50) 5 (10:00) 0 0 0 0 0

Gráficas

Temp. máximas Temp. mínimas Temp. medias Precipitaciones Rachas de viento máximas Velocidades máximas media en intervalos de 10 minutos

Datos horarios

Fecha y hora oficial Temperatura (ºC) Velocidad del viento (km/h) Dirección del viento Racha (km/h) Dirección de racha Precipitación (mm) Presión (hPa) Tendencia (hPa) Humedad (%)
2019-04-19 23:00:00 10.9 10 Noroeste 29 Noroeste 0.6 -- -- 91
2019-04-19 22:00:00 11.5 14 Noroeste 27 Oeste 0 -- -- 89
2019-04-19 21:00:00 11.6 13 Noroeste 24 Noroeste 0 -- -- 91
2019-04-19 20:00:00 12.3 5 Oeste 13 Sudoeste 0 -- -- 91
2019-04-19 19:00:00 12.5 2 Norte 9 Este 0 -- -- 91
2019-04-19 18:00:00 11.8 5 Nordeste 15 Este 0.4 -- -- 92
2019-04-19 17:00:00 12.4 9 Este 14 Este 0 -- -- 90
2019-04-19 16:00:00 13.3 5 Este 9 Este 0.2 -- -- 89
2019-04-19 15:00:00 13.1 0 Calma 4 Norte 0 -- -- 90
2019-04-19 14:00:00 12.9 0 Calma 6 Norte 0.2 -- -- 93
2019-04-19 13:00:00 12.7 2 Norte 4 Norte 1.6 -- -- 95
2019-04-19 12:00:00 12 0 Calma 3 Sudeste 1.8 -- -- 96
2019-04-19 11:00:00 11.7 0 Calma 5 Sudoeste 2 -- -- 96
2019-04-19 10:00:00 11.3 3 Oeste 9 Oeste 0.8 -- -- 96
2019-04-19 09:00:00 11.2 5 Oeste 9 Oeste 1.6 -- -- 96
2019-04-19 08:00:00 11 4 Oeste 12 Sur 6.2 -- -- 95
2019-04-19 07:00:00 11.1 4 Oeste 9 Sudoeste 0.2 -- -- 94
2019-04-19 06:00:00 10.8 5 Oeste 8 Sudoeste 0 -- -- 94
2019-04-19 05:00:00 10.7 5 Oeste 9 Oeste 0 -- -- 93
2019-04-19 04:00:00 10.7 0 Calma 7 Nordeste 0 -- -- 92
2019-04-19 03:00:00 10.9 4 Noroeste 7 Sudoeste 0 -- -- 92
2019-04-19 02:00:00 10.9 5 Sudoeste 13 Oeste 0 -- -- 92
2019-04-19 01:00:00 10.9 3 Noroeste 13 Oeste 0 -- -- 92
2019-04-19 00:00:00 10.7 8 Oeste 13 Oeste 0 -- -- 92
2019-04-18 23:00:00 11 6 Noroeste 10 Oeste 0 -- -- 90
2019-04-18 22:00:00 11.9 5 Oeste 8 Oeste 0 -- -- 87
2019-04-18 21:00:00 13 0 Calma 4 Este 0 -- -- 85
2019-04-18 20:00:00 13.7 3 Noroeste 8 Sur 0.2 -- -- 82
2019-04-18 19:00:00 12.5 2 Sur 29 Oeste 0 -- -- 89
2019-04-18 18:00:00 11.9 15 Este 27 Nordeste 0.6 -- -- 90
2019-04-18 17:00:00 12.9 2 Sudoeste 13 Sudoeste 0.6 -- -- 83
2019-04-18 16:00:00 13 9 Noroeste 28 Noroeste 0.2 -- -- 78
2019-04-18 15:00:00 13.5 14 Noroeste 56 Noroeste 0 -- -- 69
2019-04-18 14:00:00 16.8 21 Norte 33 Norte 0 -- -- 61
2019-04-18 13:00:00 17 9 Norte 17 Norte 0 -- -- 59
2019-04-18 12:00:00 15.7 10 Norte 19 Norte 0 -- -- 63
2019-04-18 11:00:00 15.1 15 Norte 23 Norte 0 -- -- 66
2019-04-18 10:00:00 14.1 12 Noroeste 21 Noroeste 0 -- -- 70
2019-04-18 09:00:00 13.4 13 Oeste 21 Oeste 0 -- -- 75
2019-04-18 08:00:00 13.2 12 Oeste 18 Sudoeste 0 -- -- 75
2019-04-18 07:00:00 13.3 9 Oeste 22 Oeste 0 -- -- 76
2019-04-18 06:00:00 13.7 12 Oeste 29 Sudoeste 0 -- -- 73
2019-04-18 05:00:00 14 20 Noroeste 34 Noroeste 0 -- -- 70
2019-04-18 04:00:00 13.7 10 Oeste 20 Sudoeste 0 -- -- 73
2019-04-18 03:00:00 13.8 11 Oeste 18 Sudoeste 0 -- -- 70
2019-04-18 02:00:00 14.1 2 Noroeste 18 Oeste 0 -- -- 71
2019-04-18 01:00:00 13.7 10 Oeste 15 Oeste 0 -- -- 77
2019-04-18 00:00:00 13.2 9 Oeste 18 Oeste 0 -- -- 80
2019-04-17 23:00:00 13.4 3 Noroeste 8 Nordeste 0 -- -- 79
2019-04-17 22:00:00 14.2 0 Calma 13 Sudeste 0 -- -- 79
2019-04-17 21:00:00 14.8 7 Sudeste 22 Este 0 -- -- 78
2019-04-17 20:00:00 15.8 14 Sudeste 26 Este 0 -- -- 72
2019-04-17 19:00:00 17 17 Este 35 Este 0 -- -- 64
2019-04-17 18:00:00 18.6 21 Este 35 Este 0 -- -- 59
2019-04-17 17:00:00 19.8 21 Este 36 Este 0 -- -- 50
2019-04-17 16:00:00 20.7 19 Este 35 Este 0 -- -- 48
2019-04-17 15:00:00 20.7 17 Este 30 Nordeste 0 -- -- 49
2019-04-17 14:00:00 20.1 15 Este 31 Este 0 -- -- 52
2019-04-17 13:00:00 19 11 Este 27 Sudeste 0 -- -- 55
2019-04-17 12:00:00 17.7 14 Este 27 Este 0 -- -- 59
2019-04-17 11:00:00 15.5 10 Sudeste 20 Este 0 -- -- 69
2019-04-17 10:00:00 14.6 6 Este 16 Sudeste 0 -- -- 75
2019-04-17 09:00:00 13.9 8 Este 15 Este 0 -- -- 79
2019-04-17 08:00:00 13.6 5 Este 12 Este 0 -- -- 84
2019-04-17 07:00:00 13.5 4 Este 11 Este 0 -- -- 83
2019-04-17 06:00:00 13.4 7 Este 15 Este 0 -- -- 84
2019-04-17 05:00:00 13.6 8 Este 16 Nordeste 0 -- -- 85
2019-04-17 04:00:00 13.7 8 Nordeste 17 Este 0 -- -- 85
2019-04-17 03:00:00 14 6 Nordeste 14 Nordeste 0 -- -- 85
2019-04-17 02:00:00 14 7 Este 13 Nordeste 0 -- -- 84
2019-04-17 01:00:00 13.4 5 Este 13 Este 0 -- -- 87
2019-04-17 00:00:00 13.6 7 Este 13 Este 0 -- -- 87
2019-04-16 23:00:00 14.5 4 Este 18 Nordeste 0 -- -- 81
2019-04-16 22:00:00 15.2 10 Este 28 Este 0 -- -- 77
2019-04-16 21:00:00 16 14 Este 32 Este 0 -- -- 67
2019-04-16 20:00:00 17.3 17 Este 31 Este 0 -- -- 61
2019-04-16 19:00:00 18.5 17 Este 44 Este 0 -- -- 61
2019-04-16 18:00:00 19.5 22 Este 44 Nordeste 0 -- -- 60
2019-04-16 17:00:00 20.8 31 Este 47 Este 0 -- -- 56
2019-04-16 16:00:00 24.3 21 Este 40 Sudeste 0 -- -- 40
2019-04-16 15:00:00 25.1 11 Este 25 Sudeste 0 -- -- 26
2019-04-16 14:00:00 24 13 Este 26 Este 0 -- -- 28
2019-04-16 13:00:00 23.5 4 Nordeste 20 Norte 0 -- -- 28
2019-04-16 12:00:00 22.5 13 Norte 27 Norte 0 -- -- 34
2019-04-16 11:00:00 20.5 16 Noroeste 24 Norte 0 -- -- 43
2019-04-16 10:00:00 18.6 16 Noroeste 23 Norte 0 -- -- 48
2019-04-16 09:00:00 16 11 Noroeste 22 Noroeste 0 -- -- 56
2019-04-16 08:00:00 14.9 12 Noroeste 25 Noroeste 0 -- -- 59
2019-04-16 07:00:00 14.7 16 Noroeste 37 Noroeste 0 -- -- 63
2019-04-16 06:00:00 12.6 15 Noroeste 21 Noroeste 0 -- -- 81
2019-04-16 05:00:00 11.5 10 Oeste 18 Sudoeste 0 -- -- 86
2019-04-16 04:00:00 11.3 12 Oeste 15 Oeste 0 -- -- 88
2019-04-16 03:00:00 11.7 9 Oeste 13 Oeste 0 -- -- 87
2019-04-16 02:00:00 12.7 8 Oeste 13 Oeste 0 -- -- 86
2019-04-16 01:00:00 13.7 3 Sudoeste 4 Oeste 0 -- -- 83
2019-04-16 00:00:00 14.5 2 Nordeste 9 Este 0 -- -- 79
2019-04-15 23:00:00 15.2 6 Este 14 Este 0 -- -- 75
2019-04-15 22:00:00 16 10 Este 25 Este 0 -- -- 71
2019-04-15 21:00:00 17.1 14 Este 28 Este 0 -- -- 65
2019-04-15 20:00:00 18.9 15 Este 31 Este 0 -- -- 58
2019-04-15 19:00:00 20.9 21 Este 36 Este 0 -- -- 54
2019-04-15 18:00:00 22.9 19 Este 32 Este 0 -- -- 49
2019-04-15 17:00:00 23.4 18 Este 32 Este 0 -- -- 49
2019-04-15 16:00:00 23 19 Este 29 Este 0 -- -- 51
2019-04-15 15:00:00 22.6 19 Este 30 Este 0 -- -- 52
2019-04-15 14:00:00 23.1 15 Este 28 Este 0 -- -- 47
2019-04-15 13:00:00 23.1 14 Este 25 Este 0 -- -- 44
2019-04-15 12:00:00 22.5 16 Este 27 Este 0 -- -- 41
2019-04-15 11:00:00 21.8 14 Este 21 Nordeste 0 -- -- 42
2019-04-15 10:00:00 19.6 2 Noroeste 13 Oeste 0 -- -- 49
2019-04-15 09:00:00 15.6 9 Oeste 14 Oeste 0 -- -- 59
2019-04-15 08:00:00 15.6 10 Oeste 17 Oeste 0 -- -- 55
2019-04-15 07:00:00 16.2 12 Oeste 16 Oeste 0 -- -- 53
2019-04-15 06:00:00 16.2 10 Oeste 17 Oeste 0 -- -- 53
2019-04-15 05:00:00 16.3 12 Oeste 16 Oeste 0 -- -- 51
2019-04-15 04:00:00 15.8 11 Oeste 14 Oeste 0 -- -- 51
2019-04-15 03:00:00 16.1 9 Oeste 16 Oeste 0 -- -- 50
2019-04-15 02:00:00 16.7 5 Noroeste 15 Noroeste 0 -- -- 47
2019-04-15 01:00:00 16.5 13 Sudoeste 16 Sudoeste 0 -- -- 45
2019-04-15 00:00:00 17.7 6 Oeste 12 Oeste 0 -- -- 45
2019-04-14 23:00:00 17.9 7 Noroeste 10 Noroeste 0 -- -- 50
2019-04-14 22:00:00 19.1 5 Norte 10 Noroeste 0 -- -- 45
2019-04-14 21:00:00 21.3 3 Este 23 Sur 0 -- -- 39
2019-04-14 20:00:00 23.5 13 Sur 27 Sur 0 -- -- 35
2019-04-14 19:00:00 25.3 14 Sur 31 Sur 0 -- -- 29
2019-04-14 18:00:00 27.2 17 Sur 32 Sur 0 -- -- 26
2019-04-14 17:00:00 28 14 Sur 29 Sur 0 -- -- 25
2019-04-14 16:00:00 29 14 Sur 27 Sur 0 -- -- 22
2019-04-14 15:00:00 28.2 5 Oeste 21 Sudeste 0 -- -- 21
2019-04-14 14:00:00 27.2 7 Este 22 Sudeste 0 -- -- 23
2019-04-14 13:00:00 26.5 7 Nordeste 26 Norte 0 -- -- 24
2019-04-14 12:00:00 25.2 17 Norte 26 Norte 0 -- -- 28
2019-04-14 11:00:00 23.3 7 Noroeste 18 Noroeste 0 -- -- 32
2019-04-14 10:00:00 19.7 7 Oeste 18 Oeste 0 -- -- 42
2019-04-14 09:00:00 15.8 13 Oeste 18 Oeste 0 -- -- 47
2019-04-14 08:00:00 12.9 10 Oeste 16 Oeste 0 -- -- 53
2019-04-14 07:00:00 12.6 10 Oeste 17 Oeste 0 -- -- 54
2019-04-14 06:00:00 11 12 Oeste 16 Oeste 0 -- -- 58
2019-04-14 05:00:00 10 13 Oeste 15 Oeste 0 -- -- 62
2019-04-14 04:00:00 10.1 11 Sudoeste 14 Oeste 0 -- -- 61
2019-04-14 03:00:00 10.4 5 Oeste 14 Sudoeste 0 -- -- 60
2019-04-14 02:00:00 11.1 7 Oeste 18 Oeste 0 -- -- 58
2019-04-14 01:00:00 12 9 Oeste 12 Oeste 0 -- -- 58
2019-04-14 00:00:00 13.9 9 Oeste 12 Oeste 0 -- -- 59
2019-04-13 23:00:00 15.3 3 Nordeste 9 Este 0 -- -- 53
2019-04-13 22:00:00 17.1 5 Nordeste 15 Este 0 -- -- 47
2019-04-13 21:00:00 19.3 11 Este 25 Sudeste 0 -- -- 35
2019-04-13 20:00:00 21.6 12 Sudeste 28 Sudeste 0 -- -- 26
2019-04-13 19:00:00 24.7 10 Sudeste 22 Sudeste 0 -- -- 24
2019-04-13 18:00:00 26.6 7 Norte 26 Noroeste 0 -- -- 17
2019-04-13 17:00:00 26.4 9 Norte 25 Noroeste 0 -- -- 18
2019-04-13 16:00:00 26.8 13 Norte 26 Norte 0 -- -- 19
2019-04-13 15:00:00 26 6 Noroeste 27 Noroeste 0 -- -- 19
2019-04-13 14:00:00 24.5 15 Oeste 35 Noroeste 0 -- -- 24
2019-04-13 13:00:00 23.4 13 Noroeste 36 Norte 0 -- -- 24
2019-04-13 12:00:00 21.6 15 Noroeste 31 Noroeste 0 -- -- 28
2019-04-13 11:00:00 18.9 15 Noroeste 23 Noroeste 0 -- -- 34
2019-04-13 10:00:00 16.1 9 Noroeste 14 Oeste 0 -- -- 42
2019-04-13 09:00:00 11.9 6 Oeste 17 Sudoeste 0 -- -- 53
2019-04-13 08:00:00 9.7 14 Oeste 21 Oeste 0 -- -- 56
2019-04-13 07:00:00 9.2 12 Oeste 18 Sudoeste 0 -- -- 57
2019-04-13 06:00:00 9.6 11 Oeste 18 Sudoeste 0 -- -- 55
2019-04-13 05:00:00 9.2 11 Oeste 17 Oeste 0 -- -- 58
2019-04-13 04:00:00 9.3 11 Oeste 14 Sudoeste 0 -- -- 59
2019-04-13 03:00:00 8.9 7 Oeste 14 Oeste 0 -- -- 63
2019-04-13 02:00:00 9.2 12 Oeste 14 Oeste 0 -- -- 66
2019-04-13 01:00:00 10.6 9 Oeste 11 Oeste 0 -- -- 66
2019-04-13 00:00:00 12.2 7 Oeste 10 Sudoeste 0 -- -- 68
2019-04-12 23:00:00 14 2 Sudeste 10 Este 0 -- -- 66
2019-04-12 22:00:00 15.3 4 Nordeste 14 Este 0 -- -- 59
2019-04-12 21:00:00 17.3 7 Este 18 Sur 0 -- -- 40
2019-04-12 20:00:00 20.1 9 Sur 18 Sur 0 -- -- 34
2019-04-12 19:00:00 22 7 Norte 24 Norte 0 -- -- 26
2019-04-12 18:00:00 23.6 12 Norte 32 Norte 0 -- -- 23
2019-04-12 17:00:00 24.3 13 Norte 36 Noroeste 0 -- -- 22
2019-04-12 16:00:00 24.5 17 Norte 40 Norte 0 -- -- 23
2019-04-12 15:00:00 23.1 17 Noroeste 46 Noroeste 0 -- -- 23
2019-04-12 14:00:00 22.3 20 Norte 38 Noroeste 0 -- -- 26
2019-04-12 13:00:00 21 23 Norte 41 Oeste 0 -- -- 27
2019-04-12 12:00:00 19 21 Noroeste 41 Noroeste 0 -- -- 31
2019-04-12 11:00:00 16.6 11 Noroeste 26 Noroeste 0 -- -- 37
2019-04-12 10:00:00 14.2 9 Oeste 18 Oeste 0 -- -- 45
2019-04-12 09:00:00 11 13 Noroeste 24 Noroeste 0 -- -- 52
2019-04-12 08:00:00 7.8 12 Oeste 17 Oeste 0 -- -- 61
2019-04-12 07:00:00 8.1 12 Oeste 15 Oeste 0 -- -- 60
2019-04-12 06:00:00 9.2 4 Oeste 12 Sudoeste 0 -- -- 56
2019-04-12 05:00:00 10.8 5 Noroeste 25 Noroeste 0 -- -- 50
2019-04-12 04:00:00 12.8 21 Noroeste 31 Noroeste 0 -- -- 44
2019-04-12 03:00:00 12.8 8 Noroeste 31 Noroeste 0 -- -- 41
2019-04-12 02:00:00 13.7 20 Noroeste 31 Noroeste 0 -- -- 38
2019-04-12 01:00:00 12.7 12 Oeste 22 Oeste 0 -- -- 40
2019-04-12 00:00:00 12.4 12 Sudoeste 19 Sudoeste 0 -- -- 43
2019-04-11 23:00:00 15 13 Oeste 25 Oeste 0 -- -- 38
2019-04-11 22:00:00 15.6 16 Noroeste 26 Norte 0 -- -- 36
2019-04-11 21:00:00 16.9 21 Noroeste 33 Norte 0 -- -- 32
2019-04-11 20:00:00 18.7 17 Noroeste 35 Norte 0 -- -- 30
2019-04-11 19:00:00 20.3 22 Norte 35 Norte 0 -- -- 28
2019-04-11 18:00:00 21.1 22 Noroeste 35 Norte 0 -- -- 28
2019-04-11 17:00:00 22.5 19 Noroeste 36 Noroeste 0 -- -- 25
2019-04-11 16:00:00 22.7 15 Noroeste 35 Norte 0 -- -- 26
2019-04-11 15:00:00 21.6 21 Noroeste 43 Noroeste 0 -- -- 28
2019-04-11 14:00:00 20.5 23 Norte 43 Noroeste 0 -- -- 31
2019-04-11 13:00:00 19.2 25 Noroeste 40 Noroeste 0 -- -- 32
2019-04-11 12:00:00 17.4 19 Noroeste 37 Noroeste 0 -- -- 42
2019-04-11 11:00:00 15.3 21 Noroeste 37 Noroeste 0 -- -- 46
2019-04-11 10:00:00 13.6 6 Noroeste 29 Norte 0 -- -- 54
2019-04-11 09:00:00 10.8 7 Oeste 15 Noroeste 0 -- -- 64
2019-04-11 08:00:00 8.9 9 Oeste 14 Oeste 0 -- -- 69
2019-04-11 07:00:00 8.8 5 Oeste 17 Sur 0 -- -- 69
2019-04-11 06:00:00 9 11 Sudoeste 15 Sudoeste 0 -- -- 69
2019-04-11 05:00:00 9.2 5 Oeste 13 Noroeste 0 -- -- 68
2019-04-11 04:00:00 9.3 3 Norte 10 Noroeste 0 -- -- 66
2019-04-11 03:00:00 9.6 6 Sudoeste 24 Noroeste 0 -- -- 65
2019-04-11 02:00:00 10.3 19 Noroeste 30 Noroeste 0 -- -- 63
2019-04-11 01:00:00 10.3 17 Noroeste 23 Oeste 0 -- -- 65
2019-04-11 00:00:00 10.7 10 Oeste 21 Oeste 0 -- -- 64
2019-04-10 23:00:00 10.9 8 Oeste 20 Oeste 0 -- -- 66
2019-04-10 22:00:00 10.6 6 Oeste 13 Oeste 0 -- -- 71
2019-04-10 21:00:00 11 7 Oeste 32 Oeste 0 -- -- 73
2019-04-10 20:00:00 12.2 9 Oeste 20 Sudoeste 0 -- -- 69
2019-04-10 19:00:00 11.8 15 Noroeste 62 Norte 0.2 -- -- 70
2019-04-10 18:00:00 15.3 35 Norte 58 Norte 0 -- -- 48
2019-04-10 17:00:00 19.9 22 Noroeste 37 Noroeste 0 -- -- 26
2019-04-10 16:00:00 20 25 Noroeste 44 Noroeste 0 -- -- 30
2019-04-10 15:00:00 20.2 27 Norte 43 Noroeste 0 -- -- 33
2019-04-10 14:00:00 20.4 22 Norte 37 Norte 0 -- -- 34
2019-04-10 13:00:00 19.1 21 Norte 42 Noroeste 0 -- -- 35
2019-04-10 12:00:00 17.4 21 Norte 38 Noroeste 0 -- -- 40
2019-04-10 11:00:00 15.2 19 Noroeste 30 Noroeste 0 -- -- 46
2019-04-10 10:00:00 14.2 10 Noroeste 18 Noroeste 0 -- -- 50
2019-04-10 09:00:00 10 8 Sudoeste 13 Oeste 0 -- -- 66
2019-04-10 08:00:00 7.8 9 Oeste 14 Sudoeste 0 -- -- 71
2019-04-10 07:00:00 9 7 Sudoeste 14 Noroeste 0 -- -- 67
2019-04-10 06:00:00 9.7 10 Oeste 19 Oeste 0 -- -- 65
2019-04-10 05:00:00 7.8 9 Oeste 14 Sudoeste 0 -- -- 71
2019-04-10 04:00:00 8 6 Oeste 14 Sudoeste 0 -- -- 71
2019-04-10 03:00:00 9.8 7 Noroeste 14 Oeste 0 -- -- 64
2019-04-10 02:00:00 10.3 8 Oeste 15 Oeste 0 -- -- 62
2019-04-10 01:00:00 10.9 7 Oeste 14 Oeste 0 -- -- 62
2019-04-10 00:00:00 12.2 11 Sudoeste 22 Oeste 0 -- -- 58
2019-04-09 23:00:00 12.6 6 Oeste 18 Noroeste 0 -- -- 56
2019-04-09 22:00:00 13.6 13 Noroeste 18 Noroeste 0 -- -- 54
2019-04-09 21:00:00 14.7 12 Noroeste 20 Noroeste 0 -- -- 48
2019-04-09 20:00:00 16.3 15 Noroeste 33 Noroeste 0 -- -- 40
2019-04-09 19:00:00 16.6 26 Noroeste 47 Norte 0 -- -- 41
2019-04-09 18:00:00 17.3 25 Noroeste 41 Oeste 0 -- -- 43
2019-04-09 17:00:00 18.5 19 Oeste 35 Oeste 0 -- -- 36
2019-04-09 16:00:00 21.3 18 Noroeste 32 Noroeste 0 -- -- 25
2019-04-09 15:00:00 20.8 28 Norte 43 Noroeste 0 -- -- 33
2019-04-09 14:00:00 20.1 22 Noroeste 30 Norte 0 -- -- 34
2019-04-09 13:00:00 19.2 15 Oeste 28 Oeste 0 -- -- 32
2019-04-09 12:00:00 18.5 6 Noroeste 26 Noroeste 0 -- -- 37
2019-04-09 11:00:00 16.7 11 Norte 24 Noroeste 0 -- -- 44
2019-04-09 10:00:00 15.2 10 Oeste 19 Oeste 0 -- -- 46
2019-04-09 09:00:00 12.4 15 Noroeste 22 Noroeste 0 -- -- 59
2019-04-09 08:00:00 10.7 9 Oeste 19 Oeste 0 -- -- 64
2019-04-09 07:00:00 11.4 13 Oeste 19 Oeste 0 -- -- 61
2019-04-09 06:00:00 11.6 7 Oeste 17 Oeste 0 -- -- 62
2019-04-09 05:00:00 12.7 12 Oeste 25 Oeste 0 -- -- 59
2019-04-09 04:00:00 13.5 18 Oeste 32 Oeste 0 -- -- 57
2019-04-09 03:00:00 12.3 13 Noroeste 33 Noroeste 0 -- -- 68
2019-04-09 02:00:00 13 23 Noroeste 50 Noroeste 0 -- -- 68
2019-04-09 01:00:00 14.9 8 Oeste 17 Oeste 0 -- -- 63
2019-04-09 00:00:00 15.3 3 Noroeste 18 Oeste 0 -- -- 59
2019-04-08 23:00:00 16 8 Oeste 16 Oeste 0 -- -- 58
2019-04-08 22:00:00 16.1 5 Oeste 10 Sudoeste 0 -- -- 62
2019-04-08 21:00:00 17 3 Sudoeste 6 Sudoeste 0 -- -- 58
2019-04-08 20:00:00 18.1 0 Calma 12 Norte 0 -- -- 55
2019-04-08 19:00:00 18.5 3 Sudeste 14 Nordeste 0 -- -- 59
2019-04-08 18:00:00 18.6 8 Norte 22 Norte 0.4 -- -- 65
2019-04-08 17:00:00 22 8 Sudoeste 22 Oeste 0 -- -- 40
2019-04-08 16:00:00 22 5 Noroeste 19 Noroeste 0 -- -- 43
2019-04-08 15:00:00 20.6 9 Norte 27 Oeste 0 -- -- 46
2019-04-08 14:00:00 18.9 10 Sudoeste 21 Sudoeste 0 -- -- 50
2019-04-08 13:00:00 17.3 3 Sur 7 Norte 0 -- -- 60
2019-04-08 12:00:00 15.3 5 Norte 14 Norte 0 -- -- 69
2019-04-08 11:00:00 13.7 4 Oeste 13 Noroeste 0 -- -- 78
2019-04-08 10:00:00 11.3 3 Oeste 11 Oeste 0 -- -- 83
2019-04-08 09:00:00 10.4 4 Noroeste 10 Oeste 0 -- -- 85
2019-04-08 08:00:00 10.2 2 Noroeste 9 Oeste 0 -- -- 85
2019-04-08 07:00:00 10.6 3 Oeste 8 Sudoeste 0 -- -- 83
2019-04-08 06:00:00 11 5 Oeste 9 Sudoeste 0 -- -- 80
2019-04-08 05:00:00 11.6 4 Oeste 9 Noroeste 0 -- -- 79
2019-04-08 04:00:00 11.7 7 Noroeste 9 Noroeste 0 -- -- 80
2019-04-08 03:00:00 12 4 Sudoeste 8 Sudoeste 0 -- -- 68
2019-04-08 02:00:00 12.5 4 Oeste 9 Oeste 0 -- -- 63
2019-04-08 01:00:00 12.9 5 Oeste 12 Oeste 0 -- -- 62
2019-04-08 00:00:00 13.7 5 Sudoeste 7 Sudoeste 0 -- -- 57
2019-04-07 23:00:00 14.8 0 Calma 18 Noroeste 0 -- -- 52
2019-04-07 22:00:00 15.3 12 Noroeste 18 Noroeste 0 -- -- 49
2019-04-07 21:00:00 15.5 10 Noroeste 15 Noroeste 0 -- -- 49
2019-04-07 20:00:00 16.4 9 Noroeste 24 Noroeste 0 -- -- 42
2019-04-07 19:00:00 17.2 17 Noroeste 35 Noroeste 0 -- -- 42
2019-04-07 18:00:00 18.1 23 Noroeste 39 Noroeste 0 -- -- 38
2019-04-07 17:00:00 17.7 23 Noroeste 45 Noroeste 0 -- -- 37
2019-04-07 16:00:00 18.7 25 Noroeste 49 Noroeste 0 -- -- 34
2019-04-07 15:00:00 18.2 26 Noroeste 46 Noroeste 0 -- -- 37
2019-04-07 14:00:00 17.4 29 Noroeste 53 Noroeste 0 -- -- 42
2019-04-07 13:00:00 15.7 23 Noroeste 47 Norte 0 -- -- 52
2019-04-07 12:00:00 14.1 22 Noroeste 45 Noroeste 0 -- -- 58
2019-04-07 11:00:00 11.6 29 Noroeste 52 Noroeste 0 -- -- 67
2019-04-07 10:00:00 10.1 34 Noroeste 47 Noroeste 0 -- -- 71
2019-04-07 09:00:00 8.4 17 Noroeste 23 Noroeste 0.4 -- -- 84
2019-04-07 08:00:00 8.1 12 Noroeste 23 Noroeste 0 -- -- 78
2019-04-07 07:00:00 8.6 9 Oeste 23 Oeste 0 -- -- 68
2019-04-07 06:00:00 9.1 14 Noroeste 30 Oeste 0 -- -- 65
2019-04-07 05:00:00 9.6 18 Noroeste 34 Noroeste 0 -- -- 62
2019-04-07 04:00:00 9.8 14 Noroeste 33 Oeste 0 -- -- 59
2019-04-07 03:00:00 9.8 17 Noroeste 37 Noroeste 0 -- -- 59
2019-04-07 02:00:00 9.1 19 Noroeste 30 Noroeste 0 -- -- 60
2019-04-07 01:00:00 9.2 4 Sudoeste 23 Oeste 0 -- -- 58
2019-04-07 00:00:00 9.8 13 Oeste 24 Oeste 0 -- -- 55
2019-04-06 23:00:00 10.2 11 Sudoeste 20 Oeste 0 -- -- 57
2019-04-06 22:00:00 11 10 Oeste 36 Noroeste 0 -- -- 56
2019-04-06 21:00:00 11.6 20 Noroeste 33 Noroeste 0 -- -- 55
2019-04-06 20:00:00 12.9 19 Noroeste 35 Noroeste 0 -- -- 54
2019-04-06 19:00:00 14.2 21 Noroeste 42 Norte 0 -- -- 52
2019-04-06 18:00:00 15.4 30 Noroeste 54 Noroeste 0 -- -- 48
2019-04-06 17:00:00 16.2 26 Noroeste 39 Noroeste 0 -- -- 49
2019-04-06 16:00:00 16.3 15 Oeste 31 Oeste 0 -- -- 41
2019-04-06 15:00:00 13.2 3 Noroeste 44 Norte 1.4 -- -- 63
2019-04-06 14:00:00 15.7 3 Norte 12 Norte 0 -- -- 44
2019-04-06 13:00:00 16.3 7 Nordeste 17 Este 0 -- -- 41
2019-04-06 12:00:00 14.9 9 Este 21 Nordeste 0 -- -- 42
2019-04-06 11:00:00 13.7 3 Sudeste 15 Este 0 -- -- 46
2019-04-06 10:00:00 11.5 3 Sudeste 8 Sudeste 0 -- -- 51
2019-04-06 09:00:00 7.4 0 Calma 5 Oeste 0 -- -- 73
2019-04-06 08:00:00 4.9 4 Sur 10 Oeste 0 -- -- 80
2019-04-06 07:00:00 5.7 6 Oeste 13 Oeste 0 -- -- 76
2019-04-06 06:00:00 6 9 Oeste 14 Oeste 0 -- -- 77
2019-04-06 05:00:00 6.4 7 Noroeste 10 Noroeste 0 -- -- 76
2019-04-06 04:00:00 6.2 4 Este 11 Oeste 0 -- -- 76
2019-04-06 03:00:00 6 6 Sudoeste 16 Oeste 0 -- -- 79
2019-04-06 02:00:00 6.5 3 Nordeste 9 Oeste 0 -- -- 75
2019-04-06 01:00:00 7.3 3 Sudeste 11 Oeste 0 -- -- 68
2019-04-06 00:00:00 8.4 3 Norte 12 Sudoeste 0 -- -- 61
2019-04-05 23:00:00 9.5 9 Sudoeste 38 Oeste 0 -- -- 56
2019-04-05 22:00:00 9.7 19 Oeste 31 Oeste 0 -- -- 60
2019-04-05 21:00:00 11.1 13 Oeste 42 Oeste 0.2 -- -- 66
2019-04-05 20:00:00 12.7 5 Norte 13 Oeste 0 -- -- 74
2019-04-05 19:00:00 12.4 4 Norte 11 Sudeste 0 -- -- 75
2019-04-05 18:00:00 12.5 2 Este 18 Sudoeste 0 -- -- 69
2019-04-05 17:00:00 11.7 12 Sudoeste 22 Noroeste 0.2 -- -- 71
2019-04-05 16:00:00 11.3 9 Noroeste 47 Oeste 0.4 -- -- 77
2019-04-05 15:00:00 15.4 23 Oeste 40 Oeste 0 -- -- 51
2019-04-05 14:00:00 17.9 18 Sudeste 32 Sudeste 0 -- -- 47
2019-04-05 13:00:00 17.8 10 Sudeste 24 Sudeste 0 -- -- 43
2019-04-05 12:00:00 16.9 6 Sur 18 Sudeste 0 -- -- 45
2019-04-05 11:00:00 15.2 2 Oeste 8 Este 0 -- -- 48
2019-04-05 10:00:00 12.2 4 Sudeste 12 Oeste 0 -- -- 70
2019-04-05 09:00:00 8.1 8 Oeste 14 Oeste 0 -- -- 88
2019-04-05 08:00:00 7 10 Oeste 14 Oeste 0 -- -- 90
2019-04-05 07:00:00 7.1 8 Sudoeste 13 Oeste 0 -- -- 90
2019-04-05 06:00:00 6.6 9 Oeste 16 Oeste 0 -- -- 90
2019-04-05 05:00:00 6.9 9 Oeste 13 Oeste 0 -- -- 88
2019-04-05 04:00:00 7.7 7 Oeste 10 Oeste 0 -- -- 85
2019-04-05 03:00:00 8.8 3 Noroeste 5 Noroeste 0 -- -- 81
2019-04-05 02:00:00 10 3 Nordeste 6 Nordeste 0 -- -- 77
2019-04-05 01:00:00 11 3 Sudeste 7 Sudeste 0 -- -- 73
2019-04-05 00:00:00 11.2 0 Calma 13 Sur 0 -- -- 72
2019-04-04 23:00:00 11.6 6 Sur 18 Sudeste 0 -- -- 70
2019-04-04 22:00:00 11.9 8 Sur 27 Sudeste 0 -- -- 70
2019-04-04 21:00:00 12.4 10 Sur 33 Sur 0 -- -- 66
2019-04-04 20:00:00 13.4 16 Sur 31 Sur 0 -- -- 61
2019-04-04 19:00:00 14.6 17 Sur 35 Sur 0 -- -- 58
2019-04-04 18:00:00 17 17 Sur 35 Sudoeste 0 -- -- 50
2019-04-04 17:00:00 18.6 15 Sur 31 Sur 0 -- -- 43
2019-04-04 16:00:00 19.1 8 Sudeste 21 Este 0 -- -- 29
2019-04-04 15:00:00 19.8 9 Sur 17 Oeste 0 -- -- 27
2019-04-04 14:00:00 18.6 5 Sudoeste 16 Oeste 0 -- -- 28
2019-04-04 13:00:00 17.6 7 Noroeste 20 Noroeste 0 -- -- 29
2019-04-04 12:00:00 16 10 Noroeste 21 Noroeste 0 -- -- 33
2019-04-04 11:00:00 14 13 Noroeste 23 Oeste 0 -- -- 41
2019-04-04 10:00:00 12.5 17 Noroeste 26 Noroeste 0 -- -- 48
2019-04-04 09:00:00 9.6 7 Sudoeste 11 Oeste 0 -- -- 61
2019-04-04 08:00:00 7.8 8 Oeste 10 Sudoeste 0 -- -- 71
2019-04-04 07:00:00 7.6 3 Oeste 6 Sudoeste 0 -- -- 66
2019-04-04 06:00:00 8.5 3 Sudeste 16 Oeste 0 -- -- 65
2019-04-04 05:00:00 10.5 10 Oeste 15 Oeste 0 -- -- 58
2019-04-04 04:00:00 12.3 12 Noroeste 19 Noroeste 0 -- -- 47
2019-04-04 03:00:00 13.1 6 Noroeste 26 Noroeste 0 -- -- 46
2019-04-04 02:00:00 14 12 Noroeste 37 Noroeste 0 -- -- 43
2019-04-04 01:00:00 15.2 20 Norte 37 Norte 0 -- -- 42
2019-04-04 00:00:00 15.1 9 Oeste 19 Noroeste 0 -- -- 50
2019-04-03 23:00:00 17.9 10 Noroeste 31 Noroeste 0 -- -- 40
2019-04-03 22:00:00 18.4 15 Oeste 26 Oeste 0 -- -- 38
2019-04-03 21:00:00 20.1 16 Noroeste 29 Oeste 0 -- -- 34
2019-04-03 20:00:00 21.2 6 Norte 15 Norte 0 -- -- 41
2019-04-03 19:00:00 21.6 9 Este 28 Sudeste 0 -- -- 49
2019-04-03 18:00:00 22.6 17 Sur 37 Sudeste 0 -- -- 46
2019-04-03 17:00:00 21.9 16 Sudeste 31 Sudeste 0 -- -- 45
2019-04-03 16:00:00 23.7 14 Sur 35 Sudeste 0 -- -- 42
2019-04-03 15:00:00 23.7 16 Sudeste 31 Sudeste 0 -- -- 35
2019-04-03 14:00:00 23.5 10 Sudeste 19 Este 0 -- -- 34
2019-04-03 13:00:00 22.5 6 Sur 17 Sudoeste 0 -- -- 36
2019-04-03 12:00:00 21.2 5 Sur 17 Norte 0 -- -- 43
2019-04-03 11:00:00 18.3 12 Noroeste 21 Noroeste 0 -- -- 53
2019-04-03 10:00:00 15.5 12 Noroeste 15 Noroeste 0 -- -- 60
2019-04-03 09:00:00 11 10 Oeste 17 Oeste 0 -- -- 78
2019-04-03 08:00:00 8.1 11 Oeste 14 Oeste 0 -- -- 89
2019-04-03 07:00:00 8.5 3 Oeste 18 Oeste 0 -- -- 88
2019-04-03 06:00:00 9.3 14 Oeste 18 Oeste 0 -- -- 87
2019-04-03 05:00:00 9.9 6 Oeste 17 Oeste 0 -- -- 87
2019-04-03 04:00:00 10.3 8 Oeste 13 Oeste 0 -- -- 87
2019-04-03 03:00:00 10.8 4 Oeste 13 Oeste 0 -- -- 86
2019-04-03 02:00:00 12 11 Oeste 15 Oeste 0 -- -- 84
2019-04-03 01:00:00 13 2 Oeste 7 Este 0 -- -- 83
2019-04-03 00:00:00 13.8 3 Este 14 Oeste 0 -- -- 80
2019-04-02 23:00:00 14.7 5 Oeste 14 Oeste 0 -- -- 78
2019-04-02 22:00:00 15.4 5 Oeste 10 Sudoeste 0 -- -- 76
2019-04-02 21:00:00 16.7 3 Noroeste 19 Sur 0 -- -- 71
2019-04-02 20:00:00 18.1 12 Sur 24 Sur 0 -- -- 66
2019-04-02 19:00:00 20.8 12 Sur 21 Sur 0 -- -- 55
2019-04-02 18:00:00 22.7 8 Sudoeste 15 Sudoeste 0 -- -- 44
2019-04-02 17:00:00 21.6 4 Oeste 14 Oeste 0 -- -- 44
2019-04-02 16:00:00 21.1 6 Sudoeste 13 Sudeste 0 -- -- 47
2019-04-02 15:00:00 21 9 Sudeste 20 Sudeste 0 -- -- 47
2019-04-02 14:00:00 19.8 8 Nordeste 15 Este 0 -- -- 50
2019-04-02 13:00:00 18.9 4 Sudeste 16 Sudeste 0 -- -- 57
2019-04-02 12:00:00 16.8 6 Sur 15 Sur 0 -- -- 70
2019-04-02 11:00:00 14.7 2 Nordeste 8 Nordeste 0 -- -- 77
2019-04-02 10:00:00 13.3 2 Nordeste 8 Oeste 0 -- -- 85
2019-04-02 09:00:00 10.4 4 Sudoeste 12 Oeste 0 -- -- 96
2019-04-02 08:00:00 9.5 9 Sudoeste 13 Sudoeste 0 -- -- 95
2019-04-02 07:00:00 10.3 9 Oeste 13 Oeste 0 -- -- 94
2019-04-02 06:00:00 11.5 6 Sudoeste 8 Sudoeste 0 -- -- 92
2019-04-02 05:00:00 12.4 3 Oeste 5 Oeste 0 -- -- 93
2019-04-02 04:00:00 12.4 0 Calma 2 Norte 0 -- -- 93
2019-04-02 03:00:00 12.5 0 Calma 3 Nordeste 0 -- -- 92
2019-04-02 02:00:00 12.8 0 Calma 4 Nordeste 0 -- -- 92
2019-04-02 01:00:00 12.7 0 Calma 10 Este 0 -- -- 92
2019-04-02 00:00:00 13 5 Nordeste 14 Este 0 -- -- 89
2019-04-01 23:00:00 13.3 9 Este 22 Este 0 -- -- 84
2019-04-01 22:00:00 13.7 9 Este 19 Sudeste 0 -- -- 84
2019-04-01 21:00:00 14.1 10 Sudeste 24 Sudeste 0 -- -- 82
2019-04-01 20:00:00 14.9 10 Sur 24 Sudeste 0 -- -- 79
2019-04-01 19:00:00 15.9 14 Sudeste 32 Sur 0 -- -- 74
2019-04-01 18:00:00 16.5 17 Sur 31 Sur 0 -- -- 73
2019-04-01 17:00:00 17.9 11 Sudeste 21 Este 0 -- -- 69
2019-04-01 16:00:00 17.1 4 Norte 17 Nordeste 0 -- -- 79
2019-04-01 15:00:00 17.5 8 Este 17 Este 0 -- -- 66
2019-04-01 14:00:00 17.6 6 Este 20 Sudeste 0 -- -- 64
2019-04-01 13:00:00 17.9 7 Sudeste 15 Este 0 -- -- 68
2019-04-01 12:00:00 17.9 6 Sudoeste 13 Sudoeste 0 -- -- 65
2019-04-01 11:00:00 15 9 Noroeste 15 Noroeste 0 -- -- 78
2019-04-01 10:00:00 12.6 8 Noroeste 16 Noroeste 0 -- -- 88
2019-04-01 09:00:00 -- -- -- -- -- 0 -- -- --
2019-04-01 08:00:00 -- -- -- -- -- 0 -- -- --
2019-04-01 07:00:00 -- -- -- -- -- 0 -- -- --
2019-04-01 06:00:00 -- -- -- -- -- 0 -- -- --
2019-04-01 05:00:00 -- -- -- -- -- 0 -- -- --
2019-04-01 04:00:00 -- -- -- -- -- 0 -- -- --
2019-04-01 03:00:00 11.5 6 Oeste 12 Sudoeste 0 -- -- 95
2019-04-01 02:00:00 11.5 3 Oeste 11 Oeste 0 -- -- 95
2019-04-01 01:00:00 11.4 6 Oeste 10 Oeste 0 -- -- 96
2019-04-01 00:00:00 11.5 8 Oeste 15 Oeste 0 -- -- 96
2019-03-31 23:00:00 11.5 6 Oeste 13 Oeste 0 -- -- 96
2019-03-31 22:00:00 11.5 10 Oeste 14 Sudoeste 0 -- -- 96
2019-03-31 21:00:00 11.5 9 Oeste 14 Oeste 0 -- -- 95
2019-03-31 20:00:00 -- -- -- -- -- 0 -- -- --
2019-03-31 19:00:00 11.9 8 Oeste 13 Sudoeste 0 -- -- 95
2019-03-31 18:00:00 11.6 8 Oeste 17 Oeste 0.4 -- -- 94
2019-03-31 17:00:00 11.6 8 Oeste 19 Oeste 1.8 -- -- 94
2019-03-31 16:00:00 10.8 10 Noroeste -- -- 1.2 -- -- 95
2019-03-31 15:00:00 10.5 10 Noroeste 18 Oeste 1 -- -- 95
2019-03-31 14:00:00 10.2 7 Oeste 21 Oeste 0.4 -- -- 95
2019-03-31 13:00:00 10.1 10 Oeste 20 Oeste 2 -- -- 95
2019-03-31 12:00:00 -- -- -- -- -- 1.2 -- -- --
2019-03-31 11:00:00 9.2 9 Oeste 18 Sudoeste 1.6 -- -- 96
2019-03-31 10:00:00 9 9 Oeste 18 Oeste 1.4 -- -- 96
2019-03-31 09:00:00 8.9 9 Oeste 17 Oeste 2.2 -- -- 95
2019-03-31 08:00:00 -- -- -- -- -- 1.6 -- -- --
2019-03-31 07:00:00 9.4 10 Sudoeste 18 Sudoeste 1.4 -- -- 94
2019-03-31 06:00:00 9.5 11 Oeste 18 Sudoeste 0.8 -- -- 93
2019-03-31 05:00:00 10 5 Oeste 9 Noroeste 2 -- -- 90
2019-03-31 03:00:00 11.2 0 Calma 4 Noroeste 0 -- -- 80
2019-03-31 01:00:00 11 0 Calma 5 Sudoeste 0 -- -- 80
2019-03-31 00:00:00 10.8 0 Calma 4 Sur 0 -- -- 80
2019-03-30 23:00:00 10.7 2 Sudoeste -- -- 0 -- -- 77
2019-03-30 22:00:00 11.1 3 Sudoeste 10 Este 0 -- -- 73
2019-03-30 21:00:00 12 7 Este 15 Este 0 -- -- 69
2019-03-30 20:00:00 12.9 8 Este 25 Este 0 -- -- 69
2019-03-30 19:00:00 13.7 15 Este 31 Este 0 -- -- 61
2019-03-30 18:00:00 15.6 19 Este 32 Este 0 -- -- 53
2019-03-30 17:00:00 17.1 15 Este 30 Sudeste 0 -- -- 46
2019-03-30 16:00:00 18.4 17 Sudeste 33 Sudeste 0 -- -- 43
2019-03-30 15:00:00 18.6 13 Sudeste 30 Sudeste 0 -- -- 42
2019-03-30 14:00:00 18.2 14 Sudeste 28 Sudeste 0 -- -- 43
2019-03-30 13:00:00 17.5 11 Este 25 Sudeste 0 -- -- 46
2019-03-30 12:00:00 16 6 Este 24 Este 0 -- -- 51
2019-03-30 11:00:00 14.4 10 Este 20 Este 0 -- -- 59
2019-03-30 10:00:00 13.1 6 Este 13 Este 0 -- -- 65
2019-03-30 09:00:00 10.9 5 Sudoeste 9 Oeste 0 -- -- 74
2019-03-30 08:00:00 -- -- -- -- -- 0 -- -- --
2019-03-30 07:00:00 -- -- -- -- -- 0 -- -- --
2019-03-30 06:00:00 7 8 Oeste 14 Oeste 0 -- -- 85
2019-03-30 05:00:00 6.2 8 Oeste 15 Oeste 0 -- -- 86
2019-03-30 04:00:00 5.9 8 Oeste 14 Oeste 0 -- -- 86
2019-03-30 03:00:00 -- -- -- -- -- 0 -- -- --
2019-03-30 02:00:00 5.3 13 Oeste 17 Oeste 0 -- -- 86
2019-03-30 01:00:00 5.6 10 Oeste 14 Oeste 0 -- -- 82
2019-03-30 00:00:00 6.4 10 Oeste 14 Oeste 0 -- -- 79
2019-03-29 23:00:00 7.7 5 Sudoeste -- -- 0 -- -- 76
2019-03-29 22:00:00 9.1 2 Noroeste 5 Este 0 -- -- 72
2019-03-29 21:00:00 10.9 4 Este 15 Este 0 -- -- 67
2019-03-29 20:00:00 11.9 7 Este 19 Sudeste 0 -- -- 62
2019-03-29 19:00:00 13.3 13 Este 27 Este 0 -- -- 53
2019-03-29 18:00:00 14.7 15 Este 28 Sudeste 0 -- -- 53
2019-03-29 17:00:00 15.8 13 Este 30 Este 0 -- -- 48
2019-03-29 16:00:00 17.2 15 Sudeste 29 Sudeste 0 -- -- 43
2019-03-29 15:00:00 18.5 18 Sudeste 32 Sudeste 0 -- -- 41
2019-03-29 14:00:00 16.6 15 Este 28 Este 0 -- -- 49
2019-03-29 13:00:00 15.8 14 Este 28 Este 0 -- -- 52
2019-03-29 12:00:00 15.8 15 Este 26 Sudeste 0 -- -- 51
2019-03-29 11:00:00 14.4 9 Sudeste 17 Este 0 -- -- 58
2019-03-29 10:00:00 12.8 2 Este 7 Sudoeste 0 -- -- 63
2019-03-29 09:00:00 10.8 7 Oeste 13 Oeste 0 -- -- 69
2019-03-29 08:00:00 6.4 8 Oeste 19 Oeste 0 -- -- 82
2019-03-29 07:00:00 -- -- -- -- -- 0 -- -- --
2019-03-29 06:00:00 5.1 12 Oeste 17 Oeste 0 -- -- 82
2019-03-29 05:00:00 5.7 11 Oeste 17 Oeste 0 -- -- 81
2019-03-29 04:00:00 6.2 11 Oeste 18 Oeste 0 -- -- 81
2019-03-29 03:00:00 6.3 13 Oeste -- -- 0 -- -- 76
2019-03-29 02:00:00 6 10 Oeste 17 Oeste 0 -- -- 79
2019-03-29 01:00:00 7.2 9 Oeste 13 Oeste 0 -- -- 74
2019-03-29 00:00:00 7.9 -- -- -- -- 0 -- -- 79
2019-03-28 23:00:00 8.4 5 Oeste -- -- 0 -- -- 79
2019-03-28 22:00:00 10.2 2 Sudeste 18 Este 0 -- -- 74
2019-03-28 21:00:00 11.6 12 Este 22 Este 0 -- -- 70
2019-03-28 20:00:00 12.9 12 Este 26 Este 0 -- -- 59
2019-03-28 19:00:00 14.4 16 Este 26 Este 0 -- -- 42
2019-03-28 18:00:00 16.1 17 Este 37 Este 0 -- -- 28
2019-03-28 17:00:00 17.5 15 Este 36 Este 0 -- -- 26
2019-03-28 16:00:00 18.6 15 Este 30 Sudeste 0 -- -- 18
2019-03-28 15:00:00 19 14 Sudeste 31 Este 0 -- -- 20
2019-03-28 14:00:00 19.1 15 Este 31 Este 0 -- -- 20
2019-03-28 13:00:00 18.5 14 Sudeste 29 Sudeste 0 -- -- 21
2019-03-28 12:00:00 18 11 Este 22 Este 0 -- -- 21
2019-03-28 11:00:00 17.4 4 Noroeste 15 Sudoeste 0 -- -- 25
2019-03-28 10:00:00 14.8 9 Oeste 18 Oeste 0 -- -- 37
2019-03-28 09:00:00 11 14 Oeste 21 Oeste 0 -- -- 44
2019-03-28 08:00:00 5.8 12 Oeste 18 Oeste 0 -- -- 55
2019-03-28 07:00:00 2.6 12 Oeste 21 Oeste 0 -- -- 64
2019-03-28 06:00:00 2.8 14 Oeste 19 Oeste 0 -- -- 62
2019-03-28 05:00:00 2.7 13 Oeste 20 Oeste 0 -- -- 63
2019-03-28 04:00:00 3.2 13 Oeste 21 Oeste 0 -- -- 62
2019-03-28 03:00:00 3.4 13 Oeste 19 Oeste 0 -- -- 61
2019-03-28 02:00:00 3.9 14 Oeste 19 Sudoeste 0 -- -- 60
2019-03-28 01:00:00 4.8 10 Oeste 15 Oeste 0 -- -- 65
2019-03-28 00:00:00 6 12 Oeste 18 Oeste 0 -- -- 69
2019-03-27 23:00:00 7.1 7 Sudoeste 9 Oeste 0 -- -- 69
2019-03-27 22:00:00 8.7 2 Noroeste 6 Sudoeste 0 -- -- 62
2019-03-27 21:00:00 10.8 5 Este 14 Sudeste 0 -- -- 57
2019-03-27 20:00:00 12.1 7 Sudeste 20 Este 0 -- -- 51
2019-03-27 19:00:00 13.7 11 Este 28 Sudeste 0 -- -- 46
2019-03-27 18:00:00 15.3 14 Este 31 Este 0 -- -- 40
2019-03-27 17:00:00 16.7 18 Este 33 Sudeste 0 -- -- 37
2019-03-27 16:00:00 18.1 18 Sudeste 32 Sudeste 0 -- -- 32
2019-03-27 15:00:00 18.6 15 Este 33 Sudeste 0 -- -- 27
2019-03-27 14:00:00 18.5 13 Este 31 Este 0 -- -- 29
2019-03-27 13:00:00 17.8 13 Este 30 Este 0 -- -- 35
2019-03-27 12:00:00 16.9 9 Nordeste 26 Norte 0 -- -- 37
2019-03-27 11:00:00 14.8 15 Nordeste 32 Este 0 -- -- 40
2019-03-27 10:00:00 14.2 4 Noroeste 18 Sudoeste 0 -- -- 44
2019-03-27 09:00:00 10.8 13 Sudoeste 19 Oeste 0 -- -- 63
2019-03-27 08:00:00 5.7 11 Oeste 17 Oeste 0 -- -- 82
2019-03-27 07:00:00 4.1 12 Oeste 18 Oeste 0 -- -- 86
2019-03-27 06:00:00 4.5 12 Oeste 17 Oeste 0 -- -- 86
2019-03-27 05:00:00 4.8 10 Oeste 19 Oeste 0 -- -- 85
2019-03-27 04:00:00 5.1 12 Oeste 16 Oeste 0 -- -- 86
2019-03-27 03:00:00 5.7 11 Oeste 18 Oeste 0 -- -- 85
2019-03-27 02:00:00 6.6 11 Oeste 14 Oeste 0 -- -- 83
2019-03-27 01:00:00 8 3 Oeste 15 Este 0 -- -- 78
2019-03-27 00:00:00 9.6 7 Nordeste 26 Nordeste 0 -- -- 76
2019-03-26 23:00:00 10.1 10 Nordeste 18 Este 0 -- -- 75
2019-03-26 22:00:00 10.4 2 Noroeste 19 Este 0 -- -- 64
2019-03-26 21:00:00 11.5 8 Este 22 Este 0 -- -- 60
2019-03-26 20:00:00 12.6 12 Este 30 Este 0 -- -- 65
2019-03-26 19:00:00 14 15 Este 35 Sudeste 0 -- -- 64
2019-03-26 18:00:00 14.9 14 Este 33 Este 0 -- -- 59
2019-03-26 17:00:00 15.6 15 Este 35 Este 0 -- -- 61
2019-03-26 16:00:00 15.9 21 Este 38 Este 0 -- -- 59
2019-03-26 15:00:00 18.6 23 Este 42 Sudeste 0 -- -- 46
2019-03-26 14:00:00 19.2 18 Este 36 Sudeste 0 -- -- 45
2019-03-26 13:00:00 19 18 Este 31 Este 0 -- -- 49
2019-03-26 12:00:00 17.9 13 Este 27 Este 0 -- -- 46
2019-03-26 11:00:00 17.7 14 Sudeste 22 Sudeste 0 -- -- 40
2019-03-26 10:00:00 16.9 5 Oeste 13 Sudoeste 0 -- -- 37
2019-03-26 09:00:00 13.2 10 Oeste 18 Oeste 0 -- -- 46
2019-03-26 08:00:00 7.4 12 Oeste 20 Oeste 0 -- -- 58
2019-03-26 07:00:00 6.2 11 Oeste 22 Oeste 0 -- -- 61
2019-03-26 06:00:00 6 14 Oeste 21 Oeste 0 -- -- 62
2019-03-26 05:00:00 6 13 Oeste 22 Oeste 0 -- -- 64
2019-03-26 04:00:00 6.3 14 Oeste 21 Oeste 0 -- -- 63
2019-03-26 03:00:00 6.4 15 Oeste 22 Oeste 0 -- -- 63
2019-03-26 02:00:00 6.9 14 Oeste 19 Oeste 0 -- -- 62
2019-03-26 01:00:00 7.3 13 Oeste 17 Oeste 0 -- -- 59
2019-03-26 00:00:00 8.3 12 Oeste 15 Oeste 0 -- -- 56
2019-03-25 23:00:00 9.9 8 Sudoeste 10 Sudoeste 0 -- -- 52
2019-03-25 22:00:00 11.8 5 Oeste 7 Oeste 0 -- -- 45
2019-03-25 21:00:00 13 3 Norte 7 Nordeste 0 -- -- 42
2019-03-25 20:00:00 15.5 4 Nordeste 20 Este 0 -- -- 35
2019-03-25 19:00:00 18.1 13 Este 28 Este 0 -- -- 31
2019-03-25 18:00:00 20.5 14 Este 25 Sudeste 0 -- -- 28
2019-03-25 17:00:00 22.2 11 Este 27 Este 0 -- -- 26
2019-03-25 16:00:00 22.9 9 Este 24 Este 0 -- -- 27
2019-03-25 15:00:00 22.7 12 Este 23 Este 0 -- -- 27
2019-03-25 14:00:00 22.2 9 Sudeste 23 Este 0 -- -- 27
2019-03-25 13:00:00 21.6 8 Sudeste 19 Este 0 -- -- 31
2019-03-25 12:00:00 20.3 9 Este 22 Este 0 -- -- 35
2019-03-25 11:00:00 19.6 5 Nordeste 15 Noroeste 0 -- -- 30
2019-03-25 10:00:00 17 7 Noroeste 18 Sudoeste 0 -- -- 38
2019-03-25 09:00:00 13.7 13 Oeste 21 Oeste 0 -- -- 49
2019-03-25 08:00:00 8.6 13 Oeste 21 Oeste 0 -- -- 64
2019-03-25 07:00:00 7 13 Oeste 21 Oeste 0 -- -- 68
2019-03-25 06:00:00 7.3 12 Oeste 19 Oeste 0 -- -- 67
2019-03-25 05:00:00 7.2 13 Oeste 18 Oeste 0 -- -- 68
2019-03-25 04:00:00 7.2 14 Oeste 18 Oeste 0 -- -- 67
2019-03-25 03:00:00 6.8 13 Oeste 19 Oeste 0 -- -- 68
2019-03-25 02:00:00 7.4 15 Oeste 20 Oeste 0 -- -- 66
2019-03-25 01:00:00 7.4 9 Oeste 14 Oeste 0 -- -- 66
2019-03-25 00:00:00 8.2 9 Sudoeste 14 Oeste 0 -- -- 64
2019-03-24 23:00:00 9.4 10 Oeste 12 Oeste 0 -- -- 60
2019-03-24 22:00:00 11.2 6 Oeste 10 Oeste 0 -- -- 58
2019-03-24 21:00:00 12.9 3 Noroeste 7 Este 0 -- -- 52
2019-03-24 20:00:00 14.3 3 Nordeste 14 Este 0 -- -- 47
2019-03-24 19:00:00 16.6 7 Este 18 Este 0 -- -- 40
2019-03-24 18:00:00 18.3 10 Este 23 Sudeste 0 -- -- 37
2019-03-24 17:00:00 19.4 14 Sudeste 26 Este 0 -- -- 37
2019-03-24 16:00:00 20.6 13 Este 26 Este 0 -- -- 33
2019-03-24 15:00:00 19.6 12 Este 30 Sudeste 0 -- -- 38
2019-03-24 14:00:00 20.6 11 Este 24 Este 0 -- -- 39
2019-03-24 13:00:00 18.8 13 Este 23 Este 0 -- -- 43
2019-03-24 12:00:00 17.1 10 Este 21 Nordeste 0 -- -- 48
2019-03-24 11:00:00 17.8 6 Nordeste 23 Sudeste 0 -- -- 47
2019-03-24 10:00:00 13.8 9 Sudoeste 18 Oeste 0 -- -- 64
2019-03-24 09:00:00 11.2 13 Oeste 19 Sudoeste 0 -- -- 73
2019-03-24 08:00:00 7 11 Oeste 22 Oeste 0 -- -- 88
2019-03-24 07:00:00 5.9 10 Oeste 19 Oeste 0 -- -- 92
2019-03-24 06:00:00 6.1 14 Oeste 20 Oeste 0 -- -- 92
2019-03-24 05:00:00 6.1 10 Oeste 16 Oeste 0 -- -- 92
2019-03-24 04:00:00 6.2 13 Oeste 19 Oeste 0 -- -- 92
2019-03-24 03:00:00 6.6 15 Oeste 22 Oeste 0 -- -- 91
2019-03-24 02:00:00 7.1 7 Oeste 16 Oeste 0 -- -- 88
2019-03-24 01:00:00 7.4 13 Oeste 17 Oeste 0 -- -- 87
2019-03-24 00:00:00 8 10 Oeste 14 Oeste 0 -- -- 82
2019-03-23 23:00:00 9 8 Oeste 10 Oeste 0 -- -- 77
2019-03-23 22:00:00 10.5 3 Oeste 4 Oeste 0 -- -- 74
2019-03-23 21:00:00 10.9 3 Nordeste 8 Este 0 -- -- 73
2019-03-23 20:00:00 13 4 Este 9 Este 0 -- -- 59
2019-03-23 19:00:00 14.7 7 Sudeste 14 Este 0 -- -- 55
2019-03-23 18:00:00 15.4 7 Este 17 Sudeste 0 -- -- 51
2019-03-23 17:00:00 16 2 Sur 15 Sudoeste 0 -- -- 51
2019-03-23 16:00:00 15.7 9 Sudoeste 19 Sudoeste 0 -- -- 54
2019-03-23 15:00:00 14.7 10 Oeste 19 Sudoeste 0 -- -- 51
2019-03-23 14:00:00 13.4 10 Oeste 18 Oeste 0 -- -- 55
2019-03-23 13:00:00 13 8 Oeste 17 Oeste 0 -- -- 53
2019-03-23 12:00:00 13.3 7 Sudoeste 12 Sudoeste 0 -- -- 53
2019-03-23 11:00:00 12.4 6 Oeste 16 Noroeste 0 -- -- 55
2019-03-23 10:00:00 11.6 10 Noroeste 17 Noroeste 0 -- -- 62
2019-03-23 09:00:00 11.5 6 Oeste 10 Oeste 0 -- -- 62
2019-03-23 08:00:00 10.3 6 Oeste 13 Oeste 0 -- -- 61
2019-03-23 07:00:00 10.4 7 Oeste 13 Oeste 0 -- -- 56
2019-03-23 06:00:00 10.7 10 Oeste 15 Oeste 0 -- -- 57
2019-03-23 05:00:00 11 7 Oeste 13 Oeste 0 -- -- 56
2019-03-23 04:00:00 11.4 7 Oeste 19 Oeste 0 -- -- 55
2019-03-23 03:00:00 11.6 9 Oeste 20 Oeste 0 -- -- 54
2019-03-23 02:00:00 10.7 9 Oeste 14 Oeste 0 -- -- 60
2019-03-23 01:00:00 10 10 Oeste 16 Oeste 0 -- -- 63
2019-03-23 00:00:00 10.6 13 Oeste 17 Oeste 0 -- -- 62
2019-03-22 23:00:00 11.3 6 Oeste 9 Oeste 0 -- -- 61
2019-03-22 22:00:00 11.8 2 Norte 7 Noroeste 0 -- -- 58
2019-03-22 21:00:00 13.7 4 Este 6 Este 0 -- -- 52
2019-03-22 20:00:00 15.6 2 Este 10 Nordeste 0 -- -- 46
2019-03-22 19:00:00 16 7 Este 17 Sudeste 0 -- -- 45
2019-03-22 18:00:00 17 10 Sudeste 25 Este 0 -- -- 41
2019-03-22 17:00:00 18.3 9 Sudeste 30 Sudeste 0 -- -- 37
2019-03-22 16:00:00 20.1 13 Este 26 Este 0 -- -- 31
2019-03-22 15:00:00 21.8 8 Sudeste 19 Sudeste 0 -- -- 29
2019-03-22 14:00:00 21.3 5 Noroeste 17 Oeste 0 -- -- 31
2019-03-22 13:00:00 19.9 12 Noroeste 20 Noroeste 0 -- -- 32
2019-03-22 12:00:00 16.3 9 Oeste 19 Oeste 0 -- -- 41
2019-03-22 11:00:00 14.4 11 Oeste 22 Oeste 0 -- -- 45
2019-03-22 10:00:00 12.2 17 Noroeste 26 Noroeste 0 -- -- 50
2019-03-22 09:00:00 10.6 10 Oeste 22 Oeste 0 -- -- 55
2019-03-22 08:00:00 6.8 11 Oeste 20 Oeste 0 -- -- 65
2019-03-22 07:00:00 5.7 8 Oeste 17 Oeste 0 -- -- 71
2019-03-22 06:00:00 6 7 Oeste 11 Oeste 0 -- -- 72
2019-03-22 05:00:00 5.9 7 Oeste 15 Noroeste 0 -- -- 72
2019-03-22 04:00:00 5.9 8 Oeste 13 Oeste 0 -- -- 71
2019-03-22 03:00:00 6.1 9 Oeste 18 Oeste 0 -- -- 75
2019-03-22 02:00:00 5.2 11 Oeste 14 Oeste 0 -- -- 72
2019-03-22 01:00:00 5.3 11 Oeste 17 Oeste 0 -- -- 70
2019-03-22 00:00:00 6 10 Oeste 15 Oeste 0 -- -- 73
2019-03-21 23:00:00 7 9 Sudoeste 14 Sudoeste 0 -- -- 71
2019-03-21 22:00:00 8.5 5 Oeste 8 Noroeste 0 -- -- 66
2019-03-21 21:00:00 9.9 3 Nordeste 8 Nordeste 0 -- -- 60
2019-03-21 20:00:00 11.9 3 Este 20 Este 0 -- -- 58
2019-03-21 19:00:00 13.6 10 Este 19 Este 0 -- -- 51
2019-03-21 18:00:00 15 12 Este 23 Sudeste 0 -- -- 44
2019-03-21 17:00:00 16.4 8 Este 23 Nordeste 0 -- -- 35
2019-03-21 16:00:00 16.7 9 Este 27 Este 0 -- -- 32
2019-03-21 15:00:00 16.8 14 Nordeste 30 Nordeste 0 -- -- 30
2019-03-21 14:00:00 17.4 13 Este 34 Este 0 -- -- 30
2019-03-21 13:00:00 15.6 6 Norte 25 Norte 0 -- -- 37
2019-03-21 12:00:00 16.3 9 Nordeste 24 Nordeste 0 -- -- 35
2019-03-21 11:00:00 14.2 8 Nordeste 22 Oeste 0 -- -- 41
2019-03-21 10:00:00 11.7 18 Noroeste 28 Noroeste 0 -- -- 54
2019-03-21 09:00:00 9.3 14 Noroeste 27 Noroeste 0 -- -- 61
2019-03-21 08:00:00 5 12 Oeste 16 Oeste 0 -- -- 79
2019-03-21 07:00:00 3.9 10 Oeste 15 Oeste 0 -- -- 83
2019-03-21 06:00:00 3.9 8 Oeste 15 Oeste 0 -- -- 83
2019-03-21 05:00:00 3.7 8 Oeste 16 Oeste 0 -- -- 83
2019-03-21 04:00:00 3.7 13 Oeste 18 Oeste 0 -- -- 82
2019-03-21 03:00:00 4.3 13 Oeste 19 Oeste 0 -- -- 80
2019-03-21 02:00:00 4.9 14 Oeste 18 Oeste 0 -- -- 79
2019-03-21 01:00:00 5.4 12 Oeste 15 Oeste 0 -- -- 81
2019-03-21 00:00:00 6.6 8 Sudoeste 12 Oeste 0 -- -- 77